createdAt,value
2022-10-16T00:00:42.882Z,1.23
2022-10-16T00:03:11.771Z,1.40
2022-10-16T00:05:42.614Z,1.10
2022-10-16T00:08:10.312Z,1.25
2022-10-16T00:10:37.848Z,1.30
2022-10-16T00:13:05.483Z,1.15
2022-10-16T00:15:34.684Z,1.20
2022-10-16T00:18:02.280Z,1.23
2022-10-16T00:20:32.082Z,1.13
2022-10-16T00:22:59.516Z,1.40
2022-10-16T00:25:26.984Z,1.20
2022-10-16T00:27:54.436Z,1.20
2022-10-16T00:30:21.892Z,1.23
2022-10-16T00:32:49.353Z,1.08
2022-10-16T00:35:16.809Z,1.23
2022-10-16T00:37:45.583Z,1.23
2022-10-16T00:40:13.434Z,1.38
2022-10-16T00:42:41.039Z,1.10
2022-10-16T00:45:10.826Z,1.25
2022-10-16T00:47:39.249Z,1.20
2022-10-16T00:50:08.914Z,1.20
2022-10-16T00:52:36.440Z,1.25
2022-10-16T00:55:06.486Z,1.10
2022-10-16T00:57:33.930Z,1.42
2022-10-16T01:00:01.441Z,1.17
2022-10-16T01:02:29.192Z,1.30
2022-10-16T01:04:56.750Z,1.20
2022-10-16T01:07:32.231Z,1.30
2022-10-16T01:10:08.574Z,1.13
2022-10-16T01:12:42.113Z,1.15
2022-10-16T01:15:16.484Z,1.27
2022-10-16T01:17:47.074Z,1.10
2022-10-16T01:20:19.587Z,1.30
2022-10-16T01:22:56.977Z,1.27
2022-10-16T01:25:30.383Z,1.13
2022-10-16T01:27:59.181Z,1.20
2022-10-16T01:30:27.761Z,1.10
2022-10-16T01:32:57.557Z,1.30
2022-10-16T01:35:27.101Z,1.30
2022-10-16T01:37:56.958Z,1.15
2022-10-16T01:40:26.052Z,1.20
2022-10-16T01:42:54.959Z,1.10
2022-10-16T01:45:23.823Z,1.30
2022-10-16T01:47:51.638Z,1.40
2022-10-16T01:50:19.969Z,1.00
2022-10-16T01:52:49.143Z,1.10
2022-10-16T01:55:18.350Z,1.37
2022-10-16T01:57:47.911Z,1.47
2022-10-16T02:00:15.578Z,1.00
2022-10-16T02:02:45.096Z,1.15
2022-10-16T02:05:14.549Z,1.20
2022-10-16T02:07:43.075Z,1.30
2022-10-16T02:10:10.571Z,1.30
2022-10-16T02:12:40.362Z,1.40
2022-10-16T02:15:08.392Z,1.23
2022-10-16T02:17:35.837Z,1.48
2022-10-16T02:20:05.723Z,1.13
2022-10-16T02:22:37.051Z,1.20
2022-10-16T02:25:06.634Z,1.30
2022-10-16T02:27:35.969Z,1.23
2022-10-16T02:30:08.778Z,1.30
2022-10-16T02:32:36.411Z,1.40
2022-10-16T02:35:05.524Z,1.10
2022-10-16T02:37:32.986Z,1.17
2022-10-16T02:40:00.455Z,1.40
2022-10-16T02:42:31.568Z,1.25
2022-10-16T02:44:59.015Z,1.20
2022-10-16T02:47:26.456Z,1.20
2022-10-16T02:49:54.401Z,1.20
2022-10-16T02:52:23.762Z,1.20
2022-10-16T02:54:51.536Z,1.20
2022-10-16T02:57:18.977Z,1.45
2022-10-16T02:59:46.430Z,1.33
2022-10-16T03:02:13.964Z,0.90
2022-10-16T03:04:41.401Z,1.23
2022-10-16T03:07:09.409Z,1.30
2022-10-16T03:09:38.165Z,1.20
2022-10-16T03:12:05.903Z,1.27
2022-10-16T03:14:33.340Z,1.40
2022-10-16T03:17:00.789Z,1.30
2022-10-16T03:19:28.217Z,1.30
2022-10-16T03:21:55.672Z,1.20
2022-10-16T03:24:23.117Z,1.10
2022-10-16T03:26:51.902Z,1.20
2022-10-16T03:29:19.354Z,1.10
2022-10-16T03:31:46.819Z,1.15
2022-10-16T03:34:14.274Z,1.20
2022-10-16T03:36:41.739Z,1.10
2022-10-16T03:39:09.189Z,1.20
2022-10-16T03:41:36.626Z,1.20
2022-10-16T03:44:05.379Z,1.33
2022-10-16T03:46:32.859Z,1.20
2022-10-16T03:49:00.379Z,1.17
2022-10-16T03:51:27.828Z,1.13
2022-10-16T03:53:55.290Z,1.10
2022-10-16T03:56:22.738Z,1.00
2022-10-16T03:58:50.157Z,1.30
2022-10-16T04:01:18.953Z,1.10
2022-10-16T04:03:46.389Z,1.13
2022-10-16T04:06:13.843Z,1.30
2022-10-16T04:08:41.284Z,1.17
2022-10-16T04:11:08.739Z,1.33
2022-10-16T04:13:36.210Z,1.20
2022-10-16T04:16:03.721Z,1.30
2022-10-16T04:18:32.535Z,1.30
2022-10-16T04:21:04.433Z,1.15
2022-10-16T04:23:31.890Z,1.15
2022-10-16T04:25:59.376Z,1.20
2022-10-16T04:28:26.870Z,1.17
2022-10-16T04:30:54.392Z,1.10
2022-10-16T04:33:21.830Z,1.10
2022-10-16T04:35:50.907Z,1.25
2022-10-16T04:38:18.357Z,1.20
2022-10-16T04:40:45.793Z,1.10
2022-10-16T04:43:13.273Z,1.20
2022-10-16T04:45:40.727Z,1.20
2022-10-16T04:48:08.170Z,1.10
2022-10-16T04:50:35.597Z,1.17
2022-10-16T04:53:04.367Z,1.05
2022-10-16T04:55:31.813Z,1.10
2022-10-16T04:57:59.261Z,1.20
2022-10-16T05:00:26.688Z,1.40
2022-10-16T05:02:54.220Z,1.10
2022-10-16T05:05:21.714Z,1.40
2022-10-16T05:07:50.125Z,1.52
2022-10-16T05:10:18.896Z,1.30
2022-10-16T05:12:46.368Z,1.30
2022-10-16T05:15:13.845Z,1.20
2022-10-16T05:17:44.012Z,1.20
2022-10-16T05:20:12.516Z,1.20
2022-10-16T05:22:39.958Z,1.30
2022-10-16T05:25:08.074Z,1.20
2022-10-16T05:27:36.850Z,0.90
2022-10-16T05:30:06.472Z,1.08
2022-10-16T05:32:36.018Z,1.30
2022-10-16T05:35:03.780Z,1.30
2022-10-16T05:37:31.650Z,1.35
2022-10-16T05:39:59.114Z,1.13
2022-10-16T05:42:26.576Z,1.40
2022-10-16T05:44:55.332Z,1.50
2022-10-16T05:47:22.839Z,1.17
2022-10-16T05:49:50.495Z,1.05
2022-10-16T05:52:18.430Z,1.25
2022-10-16T05:54:45.870Z,1.27
2022-10-16T05:57:13.336Z,1.27
2022-10-16T05:59:40.821Z,1.58
2022-10-16T06:02:10.568Z,1.17
2022-10-16T06:04:38.007Z,1.20
2022-10-16T06:07:05.454Z,1.10
2022-10-16T06:09:32.897Z,1.20
2022-10-16T06:12:00.344Z,1.17
2022-10-16T06:14:27.944Z,1.40
2022-10-16T06:16:55.402Z,1.30
2022-10-16T06:19:24.800Z,1.17
2022-10-16T06:21:52.265Z,1.33
2022-10-16T06:24:19.707Z,1.20
2022-10-16T06:26:47.195Z,1.15
2022-10-16T06:29:14.646Z,1.23
2022-10-16T06:31:42.102Z,1.20
2022-10-16T06:34:11.562Z,1.13
2022-10-16T06:36:40.381Z,1.20
2022-10-16T06:39:08.188Z,1.10
2022-10-16T06:41:35.705Z,1.30
2022-10-16T06:44:03.199Z,1.15
2022-10-16T06:46:30.835Z,1.30
2022-10-16T06:48:58.313Z,1.13
2022-10-16T06:51:26.024Z,1.25
2022-10-16T06:54:04.695Z,1.23
2022-10-16T06:56:32.768Z,1.20
2022-10-16T06:59:00.384Z,1.17
2022-10-16T07:01:27.878Z,1.05
2022-10-16T07:03:55.409Z,1.20
2022-10-16T07:06:23.955Z,1.10
2022-10-16T07:08:51.425Z,1.08
2022-10-16T07:11:20.953Z,1.38
2022-10-16T07:13:52.631Z,1.15
2022-10-16T07:16:24.102Z,1.00
2022-10-16T07:18:55.146Z,1.25
2022-10-16T07:21:23.495Z,1.23
2022-10-16T07:23:52.177Z,1.23
2022-10-16T07:26:20.997Z,1.10
2022-10-16T07:28:48.587Z,1.00
2022-10-16T07:31:16.554Z,1.25
2022-10-16T07:33:45.237Z,1.02
2022-10-16T07:36:16.183Z,1.30
2022-10-16T07:38:44.139Z,0.98
2022-10-16T07:41:12.372Z,1.20
2022-10-16T07:43:41.186Z,1.10
2022-10-16T07:46:08.694Z,1.10
2022-10-16T07:48:36.237Z,1.10
2022-10-16T07:51:04.882Z,1.20
2022-10-16T07:53:32.349Z,1.15
2022-10-16T07:56:00.506Z,1.00
2022-10-16T07:58:28.643Z,1.10
2022-10-16T08:00:57.483Z,0.95
2022-10-16T08:03:25.167Z,1.00
2022-10-16T08:05:52.621Z,1.20
2022-10-16T08:08:20.292Z,1.10
2022-10-16T08:10:47.758Z,1.10
2022-10-16T08:13:16.297Z,1.40
2022-10-16T08:15:44.072Z,1.10
2022-10-16T08:18:13.194Z,1.00
2022-10-16T08:20:40.820Z,1.00
2022-10-16T08:23:08.671Z,1.05
2022-10-16T08:25:36.446Z,1.10
2022-10-16T08:28:05.484Z,1.00
2022-10-16T08:30:32.982Z,1.10
2022-10-16T08:33:00.461Z,1.10
2022-10-16T08:35:29.288Z,1.00
2022-10-16T08:37:56.734Z,1.00
2022-10-16T08:43:11.834Z,0.90
2022-10-16T08:45:46.565Z,0.90
2022-10-16T08:48:19.541Z,0.80
2022-10-16T08:50:48.297Z,0.95
2022-10-16T08:53:17.698Z,1.13
2022-10-16T08:55:46.842Z,1.10
2022-10-16T08:58:14.992Z,1.00
2022-10-16T09:00:42.766Z,1.13
2022-10-16T09:03:15.561Z,0.88
2022-10-16T09:06:05.943Z,0.80
2022-10-16T09:08:38.628Z,1.00
2022-10-16T09:11:10.039Z,1.05
2022-10-16T09:13:41.043Z,0.95
2022-10-16T09:16:15.634Z,1.00
2022-10-16T09:18:45.165Z,0.90
2022-10-16T09:21:16.281Z,1.13
2022-10-16T09:23:43.713Z,0.90
2022-10-16T09:26:12.863Z,0.85
2022-10-16T09:28:40.437Z,1.03
2022-10-16T09:31:09.886Z,1.00
2022-10-16T09:33:38.313Z,0.90
2022-10-16T09:36:06.611Z,1.05
2022-10-16T09:38:36.826Z,0.90
2022-10-16T09:41:05.591Z,1.05
2022-10-16T09:43:36.173Z,1.00
2022-10-16T09:46:04.625Z,0.98
2022-10-16T09:48:35.607Z,0.95
2022-10-16T09:51:04.704Z,0.80
2022-10-16T09:53:43.843Z,1.10
2022-10-16T09:56:14.550Z,1.08
2022-10-16T09:58:46.117Z,1.20
2022-10-16T10:01:14.970Z,0.93
2022-10-16T10:03:42.920Z,1.20
2022-10-16T10:06:19.280Z,1.10
2022-10-16T10:09:01.884Z,1.20
2022-10-16T10:11:54.315Z,1.10
2022-10-16T10:14:23.717Z,1.10
2022-10-16T10:16:51.256Z,1.02
2022-10-16T10:19:19.065Z,0.90
2022-10-16T10:21:46.532Z,1.10
2022-10-16T10:24:16.008Z,0.90
2022-10-16T10:26:48.714Z,1.20
2022-10-16T10:29:19.592Z,1.00
2022-10-16T10:31:49.224Z,1.13
2022-10-16T10:34:38.314Z,1.02
2022-10-16T10:37:08.127Z,1.20
2022-10-16T10:39:38.603Z,1.00
2022-10-16T10:42:10.877Z,1.05
2022-10-16T10:44:50.255Z,1.02
2022-10-16T10:47:22.789Z,1.30
2022-10-16T10:49:55.554Z,1.08
2022-10-16T10:52:37.289Z,1.05
2022-10-16T10:55:15.652Z,1.10
2022-10-16T10:57:47.518Z,1.15
2022-10-16T11:00:20.230Z,1.00
2022-10-16T11:02:50.053Z,0.98
2022-10-16T11:05:32.881Z,1.20
2022-10-16T11:08:01.549Z,1.10
2022-10-16T11:10:32.695Z,0.85
2022-10-16T11:13:02.075Z,1.00
2022-10-16T11:15:31.135Z,0.90
2022-10-16T11:18:01.112Z,1.00
2022-10-16T11:20:29.479Z,0.93
2022-10-16T11:22:58.542Z,0.95
2022-10-16T11:25:27.920Z,1.02
2022-10-16T11:27:59.853Z,0.80
2022-10-16T11:30:28.256Z,0.88
2022-10-16T11:33:02.998Z,0.93
2022-10-16T11:35:38.778Z,0.90
2022-10-16T11:38:06.430Z,0.98
2022-10-16T11:40:34.452Z,1.30
2022-10-16T11:43:06.264Z,1.20
2022-10-16T11:45:36.174Z,0.90
2022-10-16T11:48:06.614Z,0.85
2022-10-16T11:50:38.758Z,0.82
2022-10-16T11:53:10.697Z,1.10
2022-10-16T11:55:41.747Z,1.10
2022-10-16T11:58:18.095Z,0.98
2022-10-16T12:00:47.473Z,0.90
2022-10-16T12:03:19.917Z,0.88
2022-10-16T12:05:55.944Z,0.90
2022-10-16T12:08:23.425Z,0.80
2022-10-16T12:10:50.889Z,0.90
2022-10-16T12:13:36.279Z,0.82
2022-10-16T12:16:22.430Z,1.10
2022-10-16T12:18:50.109Z,0.90
2022-10-16T12:21:19.979Z,0.90
2022-10-16T12:23:51.198Z,0.82
2022-10-16T12:26:26.309Z,0.80
2022-10-16T12:28:55.268Z,0.63
2022-10-16T12:31:22.977Z,0.98
2022-10-16T12:33:59.971Z,0.90
2022-10-16T12:36:31.277Z,0.80
2022-10-16T12:38:58.741Z,0.98
2022-10-16T12:41:26.904Z,0.90
2022-10-16T12:43:55.806Z,0.88
2022-10-16T12:46:25.791Z,0.70
2022-10-16T12:49:06.517Z,0.80
2022-10-16T12:51:36.585Z,0.85
2022-10-16T12:54:04.340Z,0.80
2022-10-16T12:56:39.117Z,0.70
2022-10-16T12:59:11.641Z,0.90
2022-10-16T13:01:55.665Z,0.80
2022-10-16T13:04:34.561Z,0.90
2022-10-16T13:07:06.792Z,0.80
2022-10-16T13:09:42.998Z,0.82
2022-10-16T13:12:17.859Z,0.90
2022-10-16T13:15:02.791Z,0.90
2022-10-16T13:17:32.636Z,0.90
2022-10-16T13:20:05.176Z,0.70
2022-10-16T13:22:34.917Z,0.82
2022-10-16T13:25:13.113Z,0.70
2022-10-16T13:27:43.513Z,0.90
2022-10-16T13:30:15.769Z,0.70
2022-10-16T13:32:46.651Z,0.90
2022-10-16T13:35:24.395Z,0.80
2022-10-16T13:37:51.966Z,0.80
2022-10-16T13:40:21.556Z,0.82
2022-10-16T13:42:48.996Z,0.82
2022-10-16T13:45:21.686Z,0.82
2022-10-16T13:47:49.148Z,0.70
2022-10-16T13:50:17.807Z,0.80
2022-10-16T13:52:45.494Z,0.80
2022-10-16T13:55:13.625Z,0.95
2022-10-16T13:57:41.258Z,0.77
2022-10-16T14:00:25.622Z,0.80
2022-10-16T14:02:54.896Z,0.70
2022-10-16T14:05:22.347Z,0.90
2022-10-16T14:07:51.002Z,0.65
2022-10-16T14:10:23.248Z,0.55
2022-10-16T14:12:56.765Z,0.77
2022-10-16T14:15:25.623Z,0.77
2022-10-16T14:17:53.350Z,0.68
2022-10-16T14:20:20.836Z,0.90
2022-10-16T14:22:48.303Z,0.75
2022-10-16T14:25:22.871Z,0.85
2022-10-16T14:27:59.169Z,0.77
2022-10-16T14:30:28.222Z,0.80
2022-10-16T14:32:57.105Z,0.80
2022-10-16T14:35:29.463Z,0.90
2022-10-16T14:37:57.227Z,0.93
2022-10-16T14:40:25.731Z,0.80
2022-10-16T14:42:53.281Z,0.70
2022-10-16T14:45:21.801Z,0.68
2022-10-16T14:47:52.201Z,0.63
2022-10-16T14:50:19.637Z,0.70
2022-10-16T14:52:47.077Z,0.80
2022-10-16T14:55:15.064Z,0.90
2022-10-16T14:57:42.594Z,0.80
2022-10-16T15:00:15.996Z,0.60
2022-10-16T15:02:43.441Z,0.63
2022-10-16T15:05:15.434Z,0.70
2022-10-16T15:07:42.965Z,0.80
2022-10-16T15:10:10.489Z,0.70
2022-10-16T15:12:37.933Z,0.70
2022-10-16T15:15:22.052Z,0.73
2022-10-16T15:17:50.031Z,0.90
2022-10-16T15:20:18.854Z,0.85
2022-10-16T15:22:46.295Z,0.80
2022-10-16T15:25:17.452Z,0.80
2022-10-16T15:27:44.905Z,0.60
2022-10-16T15:30:13.053Z,0.80
2022-10-16T15:32:40.481Z,0.70
2022-10-16T15:35:10.074Z,0.80
2022-10-16T15:37:38.857Z,0.80
2022-10-16T15:40:07.531Z,0.88
2022-10-16T15:42:34.969Z,0.95
2022-10-16T15:45:02.400Z,1.00
2022-10-16T15:47:29.836Z,0.75
2022-10-16T15:49:57.278Z,0.90
2022-10-16T15:52:24.891Z,0.90
2022-10-16T15:54:54.393Z,0.80
2022-10-16T15:57:21.929Z,1.00
2022-10-16T15:59:49.405Z,0.80
2022-10-16T16:02:16.949Z,1.00
2022-10-16T16:04:44.993Z,1.10
2022-10-16T16:07:12.635Z,1.00
2022-10-16T16:09:40.102Z,0.80
2022-10-16T16:12:08.918Z,0.75
2022-10-16T16:14:36.366Z,0.63
2022-10-16T16:17:03.821Z,0.95
2022-10-16T16:19:32.714Z,0.90
2022-10-16T16:22:00.174Z,0.90
2022-10-16T16:24:27.585Z,0.90
2022-10-16T16:26:55.047Z,0.90
2022-10-16T16:29:23.850Z,0.80
2022-10-16T16:31:53.710Z,0.80
2022-10-16T16:34:21.430Z,0.80
2022-10-16T16:36:48.876Z,0.80
2022-10-16T16:39:16.315Z,0.82
2022-10-16T16:41:44.103Z,0.75
2022-10-16T16:44:12.060Z,1.00
2022-10-16T16:46:40.916Z,1.00
2022-10-16T16:49:08.400Z,1.15
2022-10-16T16:51:39.732Z,0.82
2022-10-16T16:54:09.007Z,0.80
2022-10-16T16:56:36.612Z,0.90
2022-10-16T16:59:04.680Z,0.90
2022-10-16T17:01:32.735Z,1.10
2022-10-16T17:04:03.051Z,0.85
2022-10-16T17:06:31.124Z,0.90
2022-10-16T17:08:59.626Z,0.80
2022-10-16T17:11:27.903Z,1.05
2022-10-16T17:13:57.094Z,1.00
2022-10-16T17:16:25.198Z,1.02
2022-10-16T17:18:53.830Z,1.10
2022-10-16T17:21:22.722Z,0.80
2022-10-16T17:23:52.870Z,1.00
2022-10-16T17:28:47.766Z,1.00
2022-10-16T17:31:16.253Z,1.13
2022-10-16T17:33:43.819Z,0.90
2022-10-16T17:36:11.703Z,0.93
2022-10-16T17:38:40.465Z,1.08
2022-10-16T17:41:14.037Z,1.00
2022-10-16T17:43:41.505Z,1.00
2022-10-16T17:46:09.038Z,1.00
2022-10-16T17:48:38.675Z,1.15
2022-10-16T17:51:06.967Z,1.00
2022-10-16T17:53:34.487Z,0.93
2022-10-16T17:56:05.534Z,1.00
2022-10-16T17:58:33.267Z,1.00
2022-10-16T18:01:00.816Z,1.00
2022-10-16T18:03:28.302Z,1.10
2022-10-16T18:05:56.178Z,1.00
2022-10-16T18:08:26.483Z,1.05
2022-10-16T18:10:56.209Z,0.80
2022-10-16T18:13:25.003Z,1.00
2022-10-16T18:16:00.629Z,1.00
2022-10-16T18:18:29.639Z,1.17
2022-10-16T18:20:58.044Z,1.10
2022-10-16T18:23:25.501Z,0.90
2022-10-16T18:25:53.127Z,1.05
2022-10-16T18:28:20.854Z,0.88
2022-10-16T18:30:57.004Z,1.10
2022-10-16T18:33:24.472Z,1.00
2022-10-16T18:35:51.996Z,1.13
2022-10-16T18:38:21.221Z,1.10
2022-10-16T18:40:48.701Z,1.20
2022-10-16T18:43:16.146Z,1.33
2022-10-16T18:45:43.571Z,1.20
2022-10-16T18:48:12.351Z,1.02
2022-10-16T18:50:39.779Z,1.13
2022-10-16T18:53:07.260Z,1.15
2022-10-16T18:55:34.697Z,1.10
2022-10-16T18:58:02.174Z,1.10
2022-10-16T19:00:29.604Z,1.00
2022-10-16T19:02:57.040Z,1.00
2022-10-16T19:05:25.859Z,1.20
2022-10-16T19:07:53.466Z,1.10
2022-10-16T19:10:20.925Z,0.98
2022-10-16T19:12:48.353Z,1.00
2022-10-16T19:15:15.981Z,1.00
2022-10-16T19:17:43.475Z,1.10
2022-10-16T19:20:11.386Z,1.00
2022-10-16T19:22:54.002Z,1.13
2022-10-16T19:25:22.849Z,0.93
2022-10-16T19:27:50.327Z,0.90
2022-10-16T19:30:18.075Z,1.10
2022-10-16T19:32:46.279Z,1.13
2022-10-16T19:35:13.782Z,1.35
2022-10-16T19:37:42.574Z,1.08
2022-10-16T19:40:11.215Z,1.10
2022-10-16T19:42:43.418Z,1.30
2022-10-16T19:45:11.784Z,0.93
2022-10-16T19:47:39.254Z,1.38
2022-10-16T19:50:09.722Z,1.30
2022-10-16T19:52:37.940Z,1.10
2022-10-16T19:55:07.841Z,1.10
2022-10-16T20:00:09.692Z,1.30
2022-10-16T20:02:37.178Z,1.33
2022-10-16T20:05:05.011Z,1.40
2022-10-16T20:07:34.615Z,1.35
2022-10-16T20:10:02.454Z,1.13
2022-10-16T20:12:31.224Z,1.40
2022-10-16T20:14:58.657Z,1.20
2022-10-16T20:17:26.620Z,1.08
2022-10-16T20:19:54.265Z,1.40
2022-10-16T20:22:21.698Z,1.10
2022-10-16T20:24:49.151Z,1.30
2022-10-16T20:27:16.604Z,1.30
2022-10-16T20:29:45.383Z,1.20
2022-10-16T20:32:12.893Z,1.42
2022-10-16T20:34:40.303Z,1.30
2022-10-16T20:37:07.761Z,1.10
2022-10-16T20:39:35.192Z,1.10
2022-10-16T20:42:02.641Z,1.17
2022-10-16T20:44:30.126Z,1.13
2022-10-16T20:46:58.893Z,1.10
2022-10-16T20:49:39.877Z,1.10
2022-10-16T20:52:08.379Z,1.08
2022-10-16T20:54:35.843Z,1.20
2022-10-16T20:57:03.270Z,1.45
2022-10-16T20:59:30.702Z,1.15
2022-10-16T21:01:59.582Z,1.05
2022-10-16T21:04:27.249Z,1.27
2022-10-16T21:06:54.690Z,1.20
2022-10-16T21:09:22.126Z,1.20
2022-10-16T21:11:49.586Z,1.48
2022-10-16T21:14:17.087Z,1.33
2022-10-16T21:16:44.540Z,1.23
2022-10-16T21:19:13.429Z,1.33
2022-10-16T21:21:40.878Z,1.20
2022-10-16T21:24:12.081Z,1.20
2022-10-16T21:26:42.542Z,1.10
2022-10-16T21:29:10.052Z,1.30
2022-10-16T21:31:37.541Z,1.50
2022-10-16T21:34:04.975Z,1.40
2022-10-16T21:36:34.686Z,1.25
2022-10-16T21:39:02.205Z,1.42
2022-10-16T21:41:29.893Z,1.50
2022-10-16T21:43:57.749Z,1.50
2022-10-16T21:46:26.056Z,1.30
2022-10-16T21:48:53.621Z,1.45
2022-10-16T21:51:21.126Z,1.27
2022-10-16T21:53:49.870Z,1.55
2022-10-16T21:56:18.194Z,1.50
2022-10-16T21:58:45.824Z,1.67
2022-10-16T22:01:15.321Z,1.30
2022-10-16T22:03:42.940Z,1.92
2022-10-16T22:06:10.754Z,1.70
2022-10-16T22:08:38.945Z,1.73
2022-10-16T22:11:08.859Z,1.90
2022-10-16T22:13:36.316Z,1.83
2022-10-16T22:16:03.853Z,2.20
2022-10-16T22:18:31.363Z,1.83
2022-10-16T22:20:58.946Z,2.00
2022-10-16T22:23:26.440Z,2.42
2022-10-16T22:25:53.884Z,1.70
2022-10-16T22:28:22.715Z,1.83
2022-10-16T22:30:50.208Z,1.85
2022-10-16T22:33:17.644Z,1.65
2022-10-16T22:35:45.106Z,1.70
2022-10-16T22:38:12.540Z,1.60
2022-10-16T22:40:40.266Z,1.70
2022-10-16T22:43:07.694Z,1.98
2022-10-16T22:45:36.858Z,1.52
2022-10-16T22:48:04.704Z,1.83
2022-10-16T22:50:32.144Z,1.70
2022-10-16T22:52:59.590Z,2.00
2022-10-16T22:55:27.036Z,2.35
2022-10-16T22:57:56.664Z,2.03
2022-10-16T23:00:24.206Z,3.25
2022-10-16T23:02:53.028Z,2.85
2022-10-16T23:05:20.496Z,2.45
2022-10-16T23:07:49.666Z,2.50
2022-10-16T23:10:17.417Z,2.50
2022-10-16T23:12:46.224Z,2.50
2022-10-16T23:15:13.951Z,2.40
2022-10-16T23:17:41.421Z,2.40
2022-10-16T23:20:11.520Z,2.20
2022-10-16T23:25:08.918Z,2.08
2022-10-16T23:30:03.802Z,1.80
2022-10-16T23:32:31.258Z,1.90
2022-10-16T23:34:58.704Z,2.25
2022-10-16T23:37:27.533Z,1.73
2022-10-16T23:39:54.994Z,2.10
2022-10-16T23:42:22.431Z,2.05
2022-10-16T23:44:49.870Z,1.90
2022-10-16T23:47:17.305Z,1.80
2022-10-16T23:49:44.740Z,2.13
2022-10-16T23:52:12.203Z,2.25
2022-10-16T23:54:40.957Z,1.77
2022-10-16T23:57:08.414Z,1.88
2022-10-16T23:59:35.844Z,2.10
